<?xml version="1.0" encoding="UTF-8" standalone="no" ?>
<gpx xmlns="http://www.topografix.com/GPX/1/1" xmlns:xsi="http://www.w3.org/2001/XMLSchema-instance" xsi:schemaLocation="http://www.topografix.com/GPX/1/1 http://www.topografix.com/GPX/1/1/gpx.xsd" version="1.1" creator="VisuGPX - https://www.visugpx.com">
  <metadata>
    <name>La Chapelle-de-Guinchay Cyclisme</name>
    <desc><![CDATA[Col de la Serve au départ de Ouroux]]></desc>
  </metadata>
  <trk>
    <name><![CDATA[La Chapelle-de-Guinchay Cyclisme]]></name>
    <trkseg>
      <trkpt lat="46.23038" lon="4.59414">
        <ele>455.20001220703</ele>
        <time>2020-07-22T13:29:21.000Z</time>
      </trkpt>
      <trkpt lat="46.23035" lon="4.59416">
        <ele>455.60000610352</ele>
        <time>2020-07-22T13:29:22.000Z</time>
      </trkpt>
      <trkpt lat="46.23008" lon="4.59438">
        <ele>454.79998779297</ele>
        <time>2020-07-22T13:29:30.000Z</time>
      </trkpt>
      <trkpt lat="46.22989" lon="4.59439">
        <ele>456.20001220703</ele>
        <time>2020-07-22T13:29:35.000Z</time>
      </trkpt>
      <trkpt lat="46.22973" lon="4.59435">
        <ele>458</ele>
        <time>2020-07-22T13:29:40.000Z</time>
      </trkpt>
      <trkpt lat="46.2297" lon="4.59435">
        <ele>458.20001220703</ele>
        <time>2020-07-22T13:29:41.000Z</time>
      </trkpt>
      <trkpt lat="46.22966" lon="4.59435">
        <ele>458.20001220703</ele>
        <time>2020-07-22T13:29:42.000Z</time>
      </trkpt>
      <trkpt lat="46.2296" lon="4.59434">
        <ele>458.60000610352</ele>
        <time>2020-07-22T13:29:44.000Z</time>
      </trkpt>
      <trkpt lat="46.22953" lon="4.59433">
        <ele>459.39999389648</ele>
        <time>2020-07-22T13:29:46.000Z</time>
      </trkpt>
      <trkpt lat="46.22947" lon="4.59433">
        <ele>460</ele>
        <time>2020-07-22T13:29:48.000Z</time>
      </trkpt>
      <trkpt lat="46.22936" lon="4.59432">
        <ele>461</ele>
        <time>2020-07-22T13:29:51.000Z</time>
      </trkpt>
      <trkpt lat="46.22927" lon="4.59431">
        <ele>461.79998779297</ele>
        <time>2020-07-22T13:29:54.000Z</time>
      </trkpt>
      <trkpt lat="46.22921" lon="4.5943">
        <ele>462.60000610352</ele>
        <time>2020-07-22T13:29:56.000Z</time>
      </trkpt>
      <trkpt lat="46.22918" lon="4.59429">
        <ele>462.79998779297</ele>
        <time>2020-07-22T13:29:57.000Z</time>
      </trkpt>
      <trkpt lat="46.22897" lon="4.59418">
        <ele>465.79998779297</ele>
        <time>2020-07-22T13:30:04.000Z</time>
      </trkpt>
      <trkpt lat="46.22886" lon="4.5941">
        <ele>466.79998779297</ele>
        <time>2020-07-22T13:30:08.000Z</time>
      </trkpt>
      <trkpt lat="46.22877" lon="4.59401">
        <ele>467.79998779297</ele>
        <time>2020-07-22T13:30:12.000Z</time>
      </trkpt>
      <trkpt lat="46.22866" lon="4.59387">
        <ele>469.39999389648</ele>
        <time>2020-07-22T13:30:17.000Z</time>
      </trkpt>
      <trkpt lat="46.22861" lon="4.59381">
        <ele>470</ele>
        <time>2020-07-22T13:30:19.000Z</time>
      </trkpt>
      <trkpt lat="46.22857" lon="4.59376">
        <ele>470.60000610352</ele>
        <time>2020-07-22T13:30:21.000Z</time>
      </trkpt>
      <trkpt lat="46.22844" lon="4.59363">
        <ele>471.60000610352</ele>
        <time>2020-07-22T13:30:26.000Z</time>
      </trkpt>
      <trkpt lat="46.22842" lon="4.5936">
        <ele>471.79998779297</ele>
        <time>2020-07-22T13:30:27.000Z</time>
      </trkpt>
      <trkpt lat="46.22834" lon="4.59349">
        <ele>472.20001220703</ele>
        <time>2020-07-22T13:30:31.000Z</time>
      </trkpt>
      <trkpt lat="46.22831" lon="4.59346">
        <ele>472.39999389648</ele>
        <time>2020-07-22T13:30:32.000Z</time>
      </trkpt>
      <trkpt lat="46.22824" lon="4.59337">
        <ele>472.60000610352</ele>
        <time>2020-07-22T13:30:35.000Z</time>
      </trkpt>
      <trkpt lat="46.22814" lon="4.59328">
        <ele>473</ele>
        <time>2020-07-22T13:30:39.000Z</time>
      </trkpt>
      <trkpt lat="46.22811" lon="4.59326">
        <ele>473</ele>
        <time>2020-07-22T13:30:40.000Z</time>
      </trkpt>
      <trkpt lat="46.22805" lon="4.59326">
        <ele>473.20001220703</ele>
        <time>2020-07-22T13:30:42.000Z</time>
      </trkpt>
      <trkpt lat="46.22796" lon="4.5933">
        <ele>473</ele>
        <time>2020-07-22T13:30:45.000Z</time>
      </trkpt>
      <trkpt lat="46.2279" lon="4.5934">
        <ele>472.60000610352</ele>
        <time>2020-07-22T13:30:48.000Z</time>
      </trkpt>
      <trkpt lat="46.22789" lon="4.59345">
        <ele>472.39999389648</ele>
        <time>2020-07-22T13:30:49.000Z</time>
      </trkpt>
      <trkpt lat="46.22789" lon="4.59359">
        <ele>472.60000610352</ele>
        <time>2020-07-22T13:30:52.000Z</time>
      </trkpt>
      <trkpt lat="46.2279" lon="4.59373">
        <ele>472.39999389648</ele>
        <time>2020-07-22T13:30:55.000Z</time>
      </trkpt>
      <trkpt lat="46.22793" lon="4.59394">
        <ele>471.20001220703</ele>
        <time>2020-07-22T13:31:00.000Z</time>
      </trkpt>
      <trkpt lat="46.22794" lon="4.59407">
        <ele>470.39999389648</ele>
        <time>2020-07-22T13:31:03.000Z</time>
      </trkpt>
      <trkpt lat="46.22796" lon="4.59425">
        <ele>469.39999389648</ele>
        <time>2020-07-22T13:31:07.000Z</time>
      </trkpt>
      <trkpt lat="46.22797" lon="4.59442">
        <ele>469</ele>
        <time>2020-07-22T13:31:11.000Z</time>
      </trkpt>
      <trkpt lat="46.22797" lon="4.59451">
        <ele>469.39999389648</ele>
        <time>2020-07-22T13:31:13.000Z</time>
      </trkpt>
      <trkpt lat="46.22794" lon="4.59467">
        <ele>469</ele>
        <time>2020-07-22T13:31:17.000Z</time>
      </trkpt>
      <trkpt lat="46.22792" lon="4.59471">
        <ele>469</ele>
        <time>2020-07-22T13:31:18.000Z</time>
      </trkpt>
      <trkpt lat="46.22788" lon="4.59482">
        <ele>469</ele>
        <time>2020-07-22T13:31:21.000Z</time>
      </trkpt>
      <trkpt lat="46.22781" lon="4.5949">
        <ele>469.60000610352</ele>
        <time>2020-07-22T13:31:24.000Z</time>
      </trkpt>
      <trkpt lat="46.22779" lon="4.59492">
        <ele>469.79998779297</ele>
        <time>2020-07-22T13:31:25.000Z</time>
      </trkpt>
      <trkpt lat="46.22771" lon="4.59498">
        <ele>470.60000610352</ele>
        <time>2020-07-22T13:31:28.000Z</time>
      </trkpt>
      <trkpt lat="46.22759" lon="4.59501">
        <ele>472.20001220703</ele>
        <time>2020-07-22T13:31:32.000Z</time>
      </trkpt>
      <trkpt lat="46.22751" lon="4.59502">
        <ele>473.60000610352</ele>
        <time>2020-07-22T13:31:35.000Z</time>
      </trkpt>
      <trkpt lat="46.22742" lon="4.59502">
        <ele>475</ele>
        <time>2020-07-22T13:31:38.000Z</time>
      </trkpt>
      <trkpt lat="46.22734" lon="4.59501">
        <ele>476.20001220703</ele>
        <time>2020-07-22T13:31:41.000Z</time>
      </trkpt>
      <trkpt lat="46.22732" lon="4.595">
        <ele>476.60000610352</ele>
        <time>2020-07-22T13:31:42.000Z</time>
      </trkpt>
      <trkpt lat="46.22716" lon="4.59494">
        <ele>478.20001220703</ele>
        <time>2020-07-22T13:31:48.000Z</time>
      </trkpt>
      <trkpt lat="46.22714" lon="4.59493">
        <ele>478.39999389648</ele>
        <time>2020-07-22T13:31:49.000Z</time>
      </trkpt>
      <trkpt lat="46.22695" lon="4.59482">
        <ele>480.20001220703</ele>
        <time>2020-07-22T13:31:57.000Z</time>
      </trkpt>
      <trkpt lat="46.22693" lon="4.5948">
        <ele>480.39999389648</ele>
        <time>2020-07-22T13:31:58.000Z</time>
      </trkpt>
      <trkpt lat="46.22672" lon="4.59466">
        <ele>482.60000610352</ele>
        <time>2020-07-22T13:32:07.000Z</time>
      </trkpt>
      <trkpt lat="46.22669" lon="4.59464">
        <ele>482.79998779297</ele>
        <time>2020-07-22T13:32:08.000Z</time>
      </trkpt>
      <trkpt lat="46.22652" lon="4.59453">
        <ele>484.60000610352</ele>
        <time>2020-07-22T13:32:15.000Z</time>
      </trkpt>
      <trkpt lat="46.22647" lon="4.5945">
        <ele>485</ele>
        <time>2020-07-22T13:32:17.000Z</time>
      </trkpt>
      <trkpt lat="46.22632" lon="4.5944">
        <ele>486.60000610352</ele>
        <time>2020-07-22T13:32:23.000Z</time>
      </trkpt>
      <trkpt lat="46.2262" lon="4.59433">
        <ele>487.79998779297</ele>
        <time>2020-07-22T13:32:28.000Z</time>
      </trkpt>
      <trkpt lat="46.22613" lon="4.59428">
        <ele>488.39999389648</ele>
        <time>2020-07-22T13:32:31.000Z</time>
      </trkpt>
      <trkpt lat="46.22608" lon="4.59425">
        <ele>489</ele>
        <time>2020-07-22T13:32:33.000Z</time>
      </trkpt>
      <trkpt lat="46.22596" lon="4.59418">
        <ele>490.20001220703</ele>
        <time>2020-07-22T13:32:38.000Z</time>
      </trkpt>
      <trkpt lat="46.22589" lon="4.59414">
        <ele>490.79998779297</ele>
        <time>2020-07-22T13:32:41.000Z</time>
      </trkpt>
      <trkpt lat="46.22575" lon="4.59405">
        <ele>492.39999389648</ele>
        <time>2020-07-22T13:32:47.000Z</time>
      </trkpt>
      <trkpt lat="46.2257" lon="4.59401">
        <ele>492.79998779297</ele>
        <time>2020-07-22T13:32:49.000Z</time>
      </trkpt>
      <trkpt lat="46.22556" lon="4.59393">
        <ele>494.20001220703</ele>
        <time>2020-07-22T13:32:55.000Z</time>
      </trkpt>
      <trkpt lat="46.22543" lon="4.59386">
        <ele>495.60000610352</ele>
        <time>2020-07-22T13:33:00.000Z</time>
      </trkpt>
      <trkpt lat="46.2253" lon="4.59375">
        <ele>497</ele>
        <time>2020-07-22T13:33:06.000Z</time>
      </trkpt>
      <trkpt lat="46.22525" lon="4.59373">
        <ele>497.39999389648</ele>
        <time>2020-07-22T13:33:08.000Z</time>
      </trkpt>
      <trkpt lat="46.22517" lon="4.59368">
        <ele>498.20001220703</ele>
        <time>2020-07-22T13:33:11.000Z</time>
      </trkpt>
      <trkpt lat="46.22503" lon="4.59359">
        <ele>499.79998779297</ele>
        <time>2020-07-22T13:33:17.000Z</time>
      </trkpt>
      <trkpt lat="46.22496" lon="4.59354">
        <ele>500.60000610352</ele>
        <time>2020-07-22T13:33:20.000Z</time>
      </trkpt>
      <trkpt lat="46.22485" lon="4.59348">
        <ele>501.79998779297</ele>
        <time>2020-07-22T13:33:24.000Z</time>
      </trkpt>
      <trkpt lat="46.2248" lon="4.59345">
        <ele>502.39999389648</ele>
        <time>2020-07-22T13:33:26.000Z</time>
      </trkpt>
      <trkpt lat="46.2247" lon="4.59339">
        <ele>503.39999389648</ele>
        <time>2020-07-22T13:33:30.000Z</time>
      </trkpt>
      <trkpt lat="46.22459" lon="4.59335">
        <ele>504.39999389648</ele>
        <time>2020-07-22T13:33:34.000Z</time>
      </trkpt>
      <trkpt lat="46.22456" lon="4.59334">
        <ele>504.60000610352</ele>
        <time>2020-07-22T13:33:35.000Z</time>
      </trkpt>
      <trkpt lat="46.22441" lon="4.59334">
        <ele>505.60000610352</ele>
        <time>2020-07-22T13:33:41.000Z</time>
      </trkpt>
      <trkpt lat="46.22439" lon="4.59335">
        <ele>505.60000610352</ele>
        <time>2020-07-22T13:33:42.000Z</time>
      </trkpt>
      <trkpt lat="46.22421" lon="4.59344">
        <ele>505</ele>
        <time>2020-07-22T13:33:49.000Z</time>
      </trkpt>
      <trkpt lat="46.22415" lon="4.59347">
        <ele>504.79998779297</ele>
        <time>2020-07-22T13:33:51.000Z</time>
      </trkpt>
      <trkpt lat="46.22404" lon="4.59348">
        <ele>505</ele>
        <time>2020-07-22T13:33:55.000Z</time>
      </trkpt>
      <trkpt lat="46.22401" lon="4.59347">
        <ele>505.20001220703</ele>
        <time>2020-07-22T13:33:56.000Z</time>
      </trkpt>
      <trkpt lat="46.22387" lon="4.59336">
        <ele>507</ele>
        <time>2020-07-22T13:34:02.000Z</time>
      </trkpt>
      <trkpt lat="46.22383" lon="4.59331">
        <ele>507.79998779297</ele>
        <time>2020-07-22T13:34:04.000Z</time>
      </trkpt>
      <trkpt lat="46.22376" lon="4.59324">
        <ele>509</ele>
        <time>2020-07-22T13:34:07.000Z</time>
      </trkpt>
      <trkpt lat="46.22372" lon="4.5932">
        <ele>509.60000610352</ele>
        <time>2020-07-22T13:34:09.000Z</time>
      </trkpt>
      <trkpt lat="46.22363" lon="4.59311">
        <ele>511.20001220703</ele>
        <time>2020-07-22T13:34:13.000Z</time>
      </trkpt>
      <trkpt lat="46.22354" lon="4.59304">
        <ele>512.40002441406</ele>
        <time>2020-07-22T13:34:17.000Z</time>
      </trkpt>
      <trkpt lat="46.22345" lon="4.593">
        <ele>513.40002441406</ele>
        <time>2020-07-22T13:34:21.000Z</time>
      </trkpt>
      <trkpt lat="46.22337" lon="4.59299">
        <ele>514</ele>
        <time>2020-07-22T13:34:24.000Z</time>
      </trkpt>
      <trkpt lat="46.22329" lon="4.59298">
        <ele>514.59997558594</ele>
        <time>2020-07-22T13:34:27.000Z</time>
      </trkpt>
      <trkpt lat="46.22312" lon="4.59299">
        <ele>514.79998779297</ele>
        <time>2020-07-22T13:34:33.000Z</time>
      </trkpt>
      <trkpt lat="46.22304" lon="4.59299">
        <ele>515</ele>
        <time>2020-07-22T13:34:36.000Z</time>
      </trkpt>
      <trkpt lat="46.22295" lon="4.59293">
        <ele>516.20001220703</ele>
        <time>2020-07-22T13:34:40.000Z</time>
      </trkpt>
      <trkpt lat="46.22292" lon="4.59281">
        <ele>518</ele>
        <time>2020-07-22T13:34:43.000Z</time>
      </trkpt>
      <trkpt lat="46.22293" lon="4.59277">
        <ele>518.59997558594</ele>
        <time>2020-07-22T13:34:44.000Z</time>
      </trkpt>
      <trkpt lat="46.22297" lon="4.59268">
        <ele>520</ele>
        <time>2020-07-22T13:34:47.000Z</time>
      </trkpt>
      <trkpt lat="46.223" lon="4.59266">
        <ele>520</ele>
        <time>2020-07-22T13:34:48.000Z</time>
      </trkpt>
      <trkpt lat="46.22308" lon="4.59261">
        <ele>520.20001220703</ele>
        <time>2020-07-22T13:34:51.000Z</time>
      </trkpt>
      <trkpt lat="46.22316" lon="4.59257">
        <ele>520</ele>
        <time>2020-07-22T13:34:54.000Z</time>
      </trkpt>
      <trkpt lat="46.2233" lon="4.59251">
        <ele>520</ele>
        <time>2020-07-22T13:34:59.000Z</time>
      </trkpt>
      <trkpt lat="46.22338" lon="4.59246">
        <ele>520.20001220703</ele>
        <time>2020-07-22T13:35:02.000Z</time>
      </trkpt>
      <trkpt lat="46.22344" lon="4.59244">
        <ele>520</ele>
        <time>2020-07-22T13:35:04.000Z</time>
      </trkpt>
      <trkpt lat="46.22362" lon="4.59234">
        <ele>519.79998779297</ele>
        <time>2020-07-22T13:35:11.000Z</time>
      </trkpt>
      <trkpt lat="46.22364" lon="4.59233">
        <ele>519.79998779297</ele>
        <time>2020-07-22T13:35:12.000Z</time>
      </trkpt>
      <trkpt lat="46.22376" lon="4.59224">
        <ele>520</ele>
        <time>2020-07-22T13:35:17.000Z</time>
      </trkpt>
      <trkpt lat="46.22383" lon="4.59218">
        <ele>520.20001220703</ele>
        <time>2020-07-22T13:35:20.000Z</time>
      </trkpt>
      <trkpt lat="46.2239" lon="4.5921">
        <ele>520.40002441406</ele>
        <time>2020-07-22T13:35:23.000Z</time>
      </trkpt>
      <trkpt lat="46.22399" lon="4.59196">
        <ele>521.40002441406</ele>
        <time>2020-07-22T13:35:28.000Z</time>
      </trkpt>
      <trkpt lat="46.22407" lon="4.59184">
        <ele>522.40002441406</ele>
        <time>2020-07-22T13:35:32.000Z</time>
      </trkpt>
      <trkpt lat="46.22416" lon="4.59168">
        <ele>523.59997558594</ele>
        <time>2020-07-22T13:35:37.000Z</time>
      </trkpt>
      <trkpt lat="46.22421" lon="4.59159">
        <ele>524.20001220703</ele>
        <time>2020-07-22T13:35:40.000Z</time>
      </trkpt>
      <trkpt lat="46.22432" lon="4.59141">
        <ele>525.79998779297</ele>
        <time>2020-07-22T13:35:46.000Z</time>
      </trkpt>
      <trkpt lat="46.22434" lon="4.59138">
        <ele>526</ele>
        <time>2020-07-22T13:35:47.000Z</time>
      </trkpt>
      <trkpt lat="46.22445" lon="4.59117">
        <ele>528.20001220703</ele>
        <time>2020-07-22T13:35:54.000Z</time>
      </trkpt>
      <trkpt lat="46.22449" lon="4.59112">
        <ele>529</ele>
        <time>2020-07-22T13:35:56.000Z</time>
      </trkpt>
      <trkpt lat="46.22452" lon="4.59106">
        <ele>529.79998779297</ele>
        <time>2020-07-22T13:35:58.000Z</time>
      </trkpt>
      <trkpt lat="46.22462" lon="4.59089">
        <ele>531</ele>
        <time>2020-07-22T13:36:04.000Z</time>
      </trkpt>
      <trkpt lat="46.22464" lon="4.59086">
        <ele>531</ele>
        <time>2020-07-22T13:36:05.000Z</time>
      </trkpt>
      <trkpt lat="46.22475" lon="4.59067">
        <ele>530.79998779297</ele>
        <time>2020-07-22T13:36:11.000Z</time>
      </trkpt>
      <trkpt lat="46.22478" lon="4.59061">
        <ele>530.79998779297</ele>
        <time>2020-07-22T13:36:13.000Z</time>
      </trkpt>
      <trkpt lat="46.22491" lon="4.59043">
        <ele>530.20001220703</ele>
        <time>2020-07-22T13:36:19.000Z</time>
      </trkpt>
      <trkpt lat="46.22493" lon="4.59041">
        <ele>529.79998779297</ele>
        <time>2020-07-22T13:36:20.000Z</time>
      </trkpt>
      <trkpt lat="46.22511" lon="4.59027">
        <ele>527.59997558594</ele>
        <time>2020-07-22T13:36:27.000Z</time>
      </trkpt>
      <trkpt lat="46.22513" lon="4.59024">
        <ele>527.40002441406</ele>
        <time>2020-07-22T13:36:28.000Z</time>
      </trkpt>
      <trkpt lat="46.22525" lon="4.5901">
        <ele>526.40002441406</ele>
        <time>2020-07-22T13:36:33.000Z</time>
      </trkpt>
      <trkpt lat="46.22529" lon="4.59003">
        <ele>526.40002441406</ele>
        <time>2020-07-22T13:36:35.000Z</time>
      </trkpt>
      <trkpt lat="46.22538" lon="4.58973">
        <ele>526.79998779297</ele>
        <time>2020-07-22T13:36:42.000Z</time>
      </trkpt>
      <trkpt lat="46.2254" lon="4.58963">
        <ele>527</ele>
        <time>2020-07-22T13:36:44.000Z</time>
      </trkpt>
      <trkpt lat="46.22548" lon="4.58923">
        <ele>528.79998779297</ele>
        <time>2020-07-22T13:36:52.000Z</time>
      </trkpt>
      <trkpt lat="46.22549" lon="4.58918">
        <ele>529.20001220703</ele>
        <time>2020-07-22T13:36:53.000Z</time>
      </trkpt>
      <trkpt lat="46.2255" lon="4.58894">
        <ele>530.59997558594</ele>
        <time>2020-07-22T13:36:58.000Z</time>
      </trkpt>
      <trkpt lat="46.22549" lon="4.58876">
        <ele>532</ele>
        <time>2020-07-22T13:37:02.000Z</time>
      </trkpt>
      <trkpt lat="46.22549" lon="4.58858">
        <ele>533.59997558594</ele>
        <time>2020-07-22T13:37:06.000Z</time>
      </trkpt>
      <trkpt lat="46.2255" lon="4.5884">
        <ele>535.40002441406</ele>
        <time>2020-07-22T13:37:10.000Z</time>
      </trkpt>
      <trkpt lat="46.2255" lon="4.58831">
        <ele>536.40002441406</ele>
        <time>2020-07-22T13:37:12.000Z</time>
      </trkpt>
      <trkpt lat="46.2255" lon="4.58813">
        <ele>538.40002441406</ele>
        <time>2020-07-22T13:37:16.000Z</time>
      </trkpt>
      <trkpt lat="46.2255" lon="4.58795">
        <ele>540</ele>
        <time>2020-07-22T13:37:20.000Z</time>
      </trkpt>
      <trkpt lat="46.2255" lon="4.58791">
        <ele>540.59997558594</ele>
        <time>2020-07-22T13:37:21.000Z</time>
      </trkpt>
      <trkpt lat="46.22553" lon="4.58765">
        <ele>542.59997558594</ele>
        <time>2020-07-22T13:37:27.000Z</time>
      </trkpt>
      <trkpt lat="46.22556" lon="4.58757">
        <ele>543.40002441406</ele>
        <time>2020-07-22T13:37:29.000Z</time>
      </trkpt>
      <trkpt lat="46.22559" lon="4.5875">
        <ele>543.79998779297</ele>
        <time>2020-07-22T13:37:31.000Z</time>
      </trkpt>
      <trkpt lat="46.22571" lon="4.58736">
        <ele>545.40002441406</ele>
        <time>2020-07-22T13:37:36.000Z</time>
      </trkpt>
      <trkpt lat="46.22582" lon="4.58725">
        <ele>546.79998779297</ele>
        <time>2020-07-22T13:37:41.000Z</time>
      </trkpt>
      <trkpt lat="46.22586" lon="4.5872">
        <ele>547.40002441406</ele>
        <time>2020-07-22T13:37:43.000Z</time>
      </trkpt>
      <trkpt lat="46.226" lon="4.58703">
        <ele>550</ele>
        <time>2020-07-22T13:37:50.000Z</time>
      </trkpt>
      <trkpt lat="46.22608" lon="4.58691">
        <ele>551.79998779297</ele>
        <time>2020-07-22T13:37:54.000Z</time>
      </trkpt>
      <trkpt lat="46.22627" lon="4.58674">
        <ele>554</ele>
        <time>2020-07-22T13:38:02.000Z</time>
      </trkpt>
      <trkpt lat="46.2263" lon="4.58672">
        <ele>554.20001220703</ele>
        <time>2020-07-22T13:38:03.000Z</time>
      </trkpt>
      <trkpt lat="46.22635" lon="4.58671">
        <ele>554</ele>
        <time>2020-07-22T13:38:05.000Z</time>
      </trkpt>
      <trkpt lat="46.22649" lon="4.58669">
        <ele>554</ele>
        <time>2020-07-22T13:38:10.000Z</time>
      </trkpt>
      <trkpt lat="46.22651" lon="4.58668">
        <ele>554.20001220703</ele>
        <time>2020-07-22T13:38:11.000Z</time>
      </trkpt>
      <trkpt lat="46.22661" lon="4.58663">
        <ele>555.59997558594</ele>
        <time>2020-07-22T13:38:15.000Z</time>
      </trkpt>
      <trkpt lat="46.22671" lon="4.58655">
        <ele>557.20001220703</ele>
        <time>2020-07-22T13:38:19.000Z</time>
      </trkpt>
      <trkpt lat="46.22682" lon="4.58649">
        <ele>558</ele>
        <time>2020-07-22T13:38:23.000Z</time>
      </trkpt>
      <trkpt lat="46.22692" lon="4.58642">
        <ele>557.59997558594</ele>
        <time>2020-07-22T13:38:27.000Z</time>
      </trkpt>
      <trkpt lat="46.22711" lon="4.58635">
        <ele>556.59997558594</ele>
        <time>2020-07-22T13:38:34.000Z</time>
      </trkpt>
      <trkpt lat="46.22715" lon="4.58632">
        <ele>556.40002441406</ele>
        <time>2020-07-22T13:38:36.000Z</time>
      </trkpt>
      <trkpt lat="46.22718" lon="4.5863">
        <ele>556.40002441406</ele>
        <time>2020-07-22T13:38:37.000Z</time>
      </trkpt>
      <trkpt lat="46.22731" lon="4.58617">
        <ele>556</ele>
        <time>2020-07-22T13:38:43.000Z</time>
      </trkpt>
      <trkpt lat="46.2274" lon="4.58596">
        <ele>557.79998779297</ele>
        <time>2020-07-22T13:38:50.000Z</time>
      </trkpt>
      <trkpt lat="46.22742" lon="4.58572">
        <ele>560.59997558594</ele>
        <time>2020-07-22T13:38:56.000Z</time>
      </trkpt>
      <trkpt lat="46.22742" lon="4.58557">
        <ele>562.40002441406</ele>
        <time>2020-07-22T13:39:00.000Z</time>
      </trkpt>
      <trkpt lat="46.22742" lon="4.5854">
        <ele>564.40002441406</ele>
        <time>2020-07-22T13:39:04.000Z</time>
      </trkpt>
      <trkpt lat="46.22743" lon="4.58518">
        <ele>567</ele>
        <time>2020-07-22T13:39:10.000Z</time>
      </trkpt>
      <trkpt lat="46.22744" lon="4.58508">
        <ele>568.20001220703</ele>
        <time>2020-07-22T13:39:13.000Z</time>
      </trkpt>
      <trkpt lat="46.22744" lon="4.5849">
        <ele>570.20001220703</ele>
        <time>2020-07-22T13:39:18.000Z</time>
      </trkpt>
      <trkpt lat="46.22744" lon="4.58487">
        <ele>570.59997558594</ele>
        <time>2020-07-22T13:39:19.000Z</time>
      </trkpt>
      <trkpt lat="46.22743" lon="4.58471">
        <ele>572.59997558594</ele>
        <time>2020-07-22T13:39:23.000Z</time>
      </trkpt>
      <trkpt lat="46.22744" lon="4.5846">
        <ele>574.59997558594</ele>
        <time>2020-07-22T13:39:26.000Z</time>
      </trkpt>
      <trkpt lat="46.22742" lon="4.58446">
        <ele>577.20001220703</ele>
        <time>2020-07-22T13:39:30.000Z</time>
      </trkpt>
      <trkpt lat="46.22741" lon="4.58435">
        <ele>578.20001220703</ele>
        <time>2020-07-22T13:39:33.000Z</time>
      </trkpt>
      <trkpt lat="46.2274" lon="4.58431">
        <ele>578.59997558594</ele>
        <time>2020-07-22T13:39:34.000Z</time>
      </trkpt>
      <trkpt lat="46.22735" lon="4.58422">
        <ele>579.40002441406</ele>
        <time>2020-07-22T13:39:37.000Z</time>
      </trkpt>
      <trkpt lat="46.22731" lon="4.58417">
        <ele>579.79998779297</ele>
        <time>2020-07-22T13:39:39.000Z</time>
      </trkpt>
      <trkpt lat="46.22727" lon="4.58413">
        <ele>580.20001220703</ele>
        <time>2020-07-22T13:39:41.000Z</time>
      </trkpt>
      <trkpt lat="46.22723" lon="4.5841">
        <ele>580.79998779297</ele>
        <time>2020-07-22T13:39:43.000Z</time>
      </trkpt>
      <trkpt lat="46.22715" lon="4.58409">
        <ele>581.40002441406</ele>
        <time>2020-07-22T13:39:46.000Z</time>
      </trkpt>
      <trkpt lat="46.2271" lon="4.58409">
        <ele>581.79998779297</ele>
        <time>2020-07-22T13:39:48.000Z</time>
      </trkpt>
      <trkpt lat="46.22699" lon="4.58412">
        <ele>582</ele>
        <time>2020-07-22T13:39:52.000Z</time>
      </trkpt>
      <trkpt lat="46.22692" lon="4.58416">
        <ele>582</ele>
        <time>2020-07-22T13:39:55.000Z</time>
      </trkpt>
      <trkpt lat="46.22689" lon="4.58417">
        <ele>582</ele>
        <time>2020-07-22T13:39:56.000Z</time>
      </trkpt>
      <trkpt lat="46.22676" lon="4.58423">
        <ele>581.59997558594</ele>
        <time>2020-07-22T13:40:01.000Z</time>
      </trkpt>
      <trkpt lat="46.22671" lon="4.58426">
        <ele>581.40002441406</ele>
        <time>2020-07-22T13:40:03.000Z</time>
      </trkpt>
      <trkpt lat="46.22654" lon="4.58433">
        <ele>581</ele>
        <time>2020-07-22T13:40:10.000Z</time>
      </trkpt>
      <trkpt lat="46.22649" lon="4.58436">
        <ele>581</ele>
        <time>2020-07-22T13:40:12.000Z</time>
      </trkpt>
      <trkpt lat="46.22645" lon="4.58438">
        <ele>580.79998779297</ele>
        <time>2020-07-22T13:40:14.000Z</time>
      </trkpt>
      <trkpt lat="46.22632" lon="4.58442">
        <ele>581</ele>
        <time>2020-07-22T13:40:19.000Z</time>
      </trkpt>
      <trkpt lat="46.2263" lon="4.58443">
        <ele>581</ele>
        <time>2020-07-22T13:40:20.000Z</time>
      </trkpt>
      <trkpt lat="46.22619" lon="4.58445">
        <ele>581.79998779297</ele>
        <time>2020-07-22T13:40:24.000Z</time>
      </trkpt>
      <trkpt lat="46.22606" lon="4.58446">
        <ele>582.79998779297</ele>
        <time>2020-07-22T13:40:29.000Z</time>
      </trkpt>
      <trkpt lat="46.22601" lon="4.58446">
        <ele>583.20001220703</ele>
        <time>2020-07-22T13:40:31.000Z</time>
      </trkpt>
      <trkpt lat="46.22593" lon="4.58447">
        <ele>583.79998779297</ele>
        <time>2020-07-22T13:40:34.000Z</time>
      </trkpt>
      <trkpt lat="46.22578" lon="4.5845">
        <ele>584.79998779297</ele>
        <time>2020-07-22T13:40:40.000Z</time>
      </trkpt>
      <trkpt lat="46.22573" lon="4.58449">
        <ele>585.20001220703</ele>
        <time>2020-07-22T13:40:42.000Z</time>
      </trkpt>
      <trkpt lat="46.22562" lon="4.58449">
        <ele>586.20001220703</ele>
        <time>2020-07-22T13:40:46.000Z</time>
      </trkpt>
      <trkpt lat="46.2256" lon="4.58449">
        <ele>586.40002441406</ele>
        <time>2020-07-22T13:40:47.000Z</time>
      </trkpt>
      <trkpt lat="46.22539" lon="4.58451">
        <ele>587.79998779297</ele>
        <time>2020-07-22T13:40:55.000Z</time>
      </trkpt>
      <trkpt lat="46.22521" lon="4.58452">
        <ele>588.79998779297</ele>
        <time>2020-07-22T13:41:02.000Z</time>
      </trkpt>
      <trkpt lat="46.22515" lon="4.58452">
        <ele>589.20001220703</ele>
        <time>2020-07-22T13:41:04.000Z</time>
      </trkpt>
      <trkpt lat="46.22508" lon="4.58453">
        <ele>589.59997558594</ele>
        <time>2020-07-22T13:41:07.000Z</time>
      </trkpt>
      <trkpt lat="46.225" lon="4.58455">
        <ele>590</ele>
        <time>2020-07-22T13:41:10.000Z</time>
      </trkpt>
      <trkpt lat="46.22493" lon="4.58455">
        <ele>590.59997558594</ele>
        <time>2020-07-22T13:41:13.000Z</time>
      </trkpt>
      <trkpt lat="46.22488" lon="4.58455">
        <ele>591</ele>
        <time>2020-07-22T13:41:15.000Z</time>
      </trkpt>
      <trkpt lat="46.22478" lon="4.58454">
        <ele>591.59997558594</ele>
        <time>2020-07-22T13:41:19.000Z</time>
      </trkpt>
      <trkpt lat="46.22476" lon="4.58454">
        <ele>592</ele>
        <time>2020-07-22T13:41:20.000Z</time>
      </trkpt>
      <trkpt lat="46.22467" lon="4.58451">
        <ele>593.20001220703</ele>
        <time>2020-07-22T13:41:24.000Z</time>
      </trkpt>
      <trkpt lat="46.2246" lon="4.58449">
        <ele>594</ele>
        <time>2020-07-22T13:41:27.000Z</time>
      </trkpt>
      <trkpt lat="46.22457" lon="4.58448">
        <ele>594.40002441406</ele>
        <time>2020-07-22T13:41:28.000Z</time>
      </trkpt>
      <trkpt lat="46.22447" lon="4.58446">
        <ele>595.40002441406</ele>
        <time>2020-07-22T13:41:32.000Z</time>
      </trkpt>
      <trkpt lat="46.22442" lon="4.58445">
        <ele>596</ele>
        <time>2020-07-22T13:41:34.000Z</time>
      </trkpt>
      <trkpt lat="46.22435" lon="4.58443">
        <ele>596.79998779297</ele>
        <time>2020-07-22T13:41:37.000Z</time>
      </trkpt>
      <trkpt lat="46.2242" lon="4.58441">
        <ele>598.40002441406</ele>
        <time>2020-07-22T13:41:43.000Z</time>
      </trkpt>
      <trkpt lat="46.2241" lon="4.5844">
        <ele>599.40002441406</ele>
        <time>2020-07-22T13:41:47.000Z</time>
      </trkpt>
      <trkpt lat="46.224" lon="4.58439">
        <ele>600.59997558594</ele>
        <time>2020-07-22T13:41:51.000Z</time>
      </trkpt>
      <trkpt lat="46.22382" lon="4.58438">
        <ele>600.40002441406</ele>
        <time>2020-07-22T13:41:58.000Z</time>
      </trkpt>
      <trkpt lat="46.2238" lon="4.58438">
        <ele>600.40002441406</ele>
        <time>2020-07-22T13:41:59.000Z</time>
      </trkpt>
      <trkpt lat="46.22362" lon="4.58434">
        <ele>600.40002441406</ele>
        <time>2020-07-22T13:42:06.000Z</time>
      </trkpt>
      <trkpt lat="46.22348" lon="4.58429">
        <ele>600.59997558594</ele>
        <time>2020-07-22T13:42:11.000Z</time>
      </trkpt>
      <trkpt lat="46.22343" lon="4.58426">
        <ele>600.59997558594</ele>
        <time>2020-07-22T13:42:13.000Z</time>
      </trkpt>
      <trkpt lat="46.22322" lon="4.58409">
        <ele>601.20001220703</ele>
        <time>2020-07-22T13:42:21.000Z</time>
      </trkpt>
      <trkpt lat="46.223" lon="4.58381">
        <ele>601.59997558594</ele>
        <time>2020-07-22T13:42:30.000Z</time>
      </trkpt>
      <trkpt lat="46.22292" lon="4.58363">
        <ele>602</ele>
        <time>2020-07-22T13:42:34.000Z</time>
      </trkpt>
      <trkpt lat="46.22283" lon="4.5834">
        <ele>602.59997558594</ele>
        <time>2020-07-22T13:42:39.000Z</time>
      </trkpt>
      <trkpt lat="46.22273" lon="4.58311">
        <ele>604</ele>
        <time>2020-07-22T13:42:45.000Z</time>
      </trkpt>
      <trkpt lat="46.22268" lon="4.58297">
        <ele>604.79998779297</ele>
        <time>2020-07-22T13:42:48.000Z</time>
      </trkpt>
      <trkpt lat="46.22251" lon="4.58253">
        <ele>605.20001220703</ele>
        <time>2020-07-22T13:42:57.000Z</time>
      </trkpt>
      <trkpt lat="46.22237" lon="4.58219">
        <ele>605.20001220703</ele>
        <time>2020-07-22T13:43:04.000Z</time>
      </trkpt>
      <trkpt lat="46.22229" lon="4.58182">
        <ele>606.59997558594</ele>
        <time>2020-07-22T13:43:11.000Z</time>
      </trkpt>
      <trkpt lat="46.22227" lon="4.58171">
        <ele>607.40002441406</ele>
        <time>2020-07-22T13:43:13.000Z</time>
      </trkpt>
      <trkpt lat="46.2222" lon="4.58146">
        <ele>609.20001220703</ele>
        <time>2020-07-22T13:43:18.000Z</time>
      </trkpt>
      <trkpt lat="46.22219" lon="4.58141">
        <ele>609.40002441406</ele>
        <time>2020-07-22T13:43:19.000Z</time>
      </trkpt>
      <trkpt lat="46.22209" lon="4.58124">
        <ele>610.20001220703</ele>
        <time>2020-07-22T13:43:23.000Z</time>
      </trkpt>
      <trkpt lat="46.22206" lon="4.58121">
        <ele>610.40002441406</ele>
        <time>2020-07-22T13:43:24.000Z</time>
      </trkpt>
      <trkpt lat="46.22179" lon="4.58099">
        <ele>611.40002441406</ele>
        <time>2020-07-22T13:43:32.000Z</time>
      </trkpt>
      <trkpt lat="46.22156" lon="4.58082">
        <ele>612</ele>
        <time>2020-07-22T13:43:39.000Z</time>
      </trkpt>
      <trkpt lat="46.22155" lon="4.58084">
        <ele>611.59997558594</ele>
        <time>2020-07-22T13:43:40.000Z</time>
      </trkpt>
      <trkpt lat="46.22154" lon="4.58086">
        <ele>611.40002441406</ele>
        <time>2020-07-22T13:43:41.000Z</time>
      </trkpt>
      <trkpt lat="46.22151" lon="4.58084">
        <ele>611.40002441406</ele>
        <time>2020-07-22T13:46:13.000Z</time>
      </trkpt>
      <trkpt lat="46.2215" lon="4.58082">
        <ele>611.59997558594</ele>
        <time>2020-07-22T13:46:14.000Z</time>
      </trkpt>
      <trkpt lat="46.22149" lon="4.58077">
        <ele>612.20001220703</ele>
        <time>2020-07-22T13:46:16.000Z</time>
      </trkpt>
      <trkpt lat="46.22145" lon="4.58068">
        <ele>613</ele>
        <time>2020-07-22T13:46:19.000Z</time>
      </trkpt>
      <trkpt lat="46.22137" lon="4.58059">
        <ele>614</ele>
        <time>2020-07-22T13:46:23.000Z</time>
      </trkpt>
      <trkpt lat="46.22122" lon="4.58038">
        <ele>616.40002441406</ele>
        <time>2020-07-22T13:46:30.000Z</time>
      </trkpt>
      <trkpt lat="46.22107" lon="4.58022">
        <ele>617.79998779297</ele>
        <time>2020-07-22T13:46:36.000Z</time>
      </trkpt>
      <trkpt lat="46.22101" lon="4.58019">
        <ele>618.20001220703</ele>
        <time>2020-07-22T13:46:38.000Z</time>
      </trkpt>
      <trkpt lat="46.22092" lon="4.58017">
        <ele>618.40002441406</ele>
        <time>2020-07-22T13:46:41.000Z</time>
      </trkpt>
      <trkpt lat="46.2209" lon="4.58018">
        <ele>618.20001220703</ele>
        <time>2020-07-22T13:46:42.000Z</time>
      </trkpt>
      <trkpt lat="46.22079" lon="4.58023">
        <ele>617.59997558594</ele>
        <time>2020-07-22T13:46:46.000Z</time>
      </trkpt>
      <trkpt lat="46.22072" lon="4.5803">
        <ele>616.59997558594</ele>
        <time>2020-07-22T13:46:49.000Z</time>
      </trkpt>
      <trkpt lat="46.22066" lon="4.58036">
        <ele>615.79998779297</ele>
        <time>2020-07-22T13:46:51.000Z</time>
      </trkpt>
      <trkpt lat="46.2205" lon="4.58052">
        <ele>614.59997558594</ele>
        <time>2020-07-22T13:46:57.000Z</time>
      </trkpt>
      <trkpt lat="46.22032" lon="4.58058">
        <ele>615</ele>
        <time>2020-07-22T13:47:03.000Z</time>
      </trkpt>
      <trkpt lat="46.22029" lon="4.58058">
        <ele>615.20001220703</ele>
        <time>2020-07-22T13:47:04.000Z</time>
      </trkpt>
      <trkpt lat="46.22014" lon="4.58051">
        <ele>617</ele>
        <time>2020-07-22T13:47:09.000Z</time>
      </trkpt>
      <trkpt lat="46.22011" lon="4.58049">
        <ele>617.40002441406</ele>
        <time>2020-07-22T13:47:10.000Z</time>
      </trkpt>
      <trkpt lat="46.22006" lon="4.58043">
        <ele>618.40002441406</ele>
        <time>2020-07-22T13:47:12.000Z</time>
      </trkpt>
      <trkpt lat="46.21999" lon="4.58033">
        <ele>619.79998779297</ele>
        <time>2020-07-22T13:47:15.000Z</time>
      </trkpt>
      <trkpt lat="46.21997" lon="4.58029">
        <ele>620.20001220703</ele>
        <time>2020-07-22T13:47:16.000Z</time>
      </trkpt>
      <trkpt lat="46.21989" lon="4.58008">
        <ele>621.59997558594</ele>
        <time>2020-07-22T13:47:21.000Z</time>
      </trkpt>
      <trkpt lat="46.21986" lon="4.57999">
        <ele>622.20001220703</ele>
        <time>2020-07-22T13:47:23.000Z</time>
      </trkpt>
      <trkpt lat="46.21982" lon="4.5799">
        <ele>623</ele>
        <time>2020-07-22T13:47:25.000Z</time>
      </trkpt>
      <trkpt lat="46.21971" lon="4.5796">
        <ele>623.79998779297</ele>
        <time>2020-07-22T13:47:32.000Z</time>
      </trkpt>
      <trkpt lat="46.21969" lon="4.57951">
        <ele>623.79998779297</ele>
        <time>2020-07-22T13:47:34.000Z</time>
      </trkpt>
      <trkpt lat="46.21962" lon="4.57929">
        <ele>624.59997558594</ele>
        <time>2020-07-22T13:47:39.000Z</time>
      </trkpt>
      <trkpt lat="46.21958" lon="4.57916">
        <ele>624.79998779297</ele>
        <time>2020-07-22T13:47:42.000Z</time>
      </trkpt>
      <trkpt lat="46.21951" lon="4.57893">
        <ele>625.59997558594</ele>
        <time>2020-07-22T13:47:47.000Z</time>
      </trkpt>
      <trkpt lat="46.21935" lon="4.5785">
        <ele>626.20001220703</ele>
        <time>2020-07-22T13:47:55.000Z</time>
      </trkpt>
      <trkpt lat="46.21915" lon="4.57817">
        <ele>625.59997558594</ele>
        <time>2020-07-22T13:48:01.000Z</time>
      </trkpt>
      <trkpt lat="46.21911" lon="4.57812">
        <ele>625.40002441406</ele>
        <time>2020-07-22T13:48:02.000Z</time>
      </trkpt>
      <trkpt lat="46.21904" lon="4.57799">
        <ele>625.20001220703</ele>
        <time>2020-07-22T13:48:04.000Z</time>
      </trkpt>
      <trkpt lat="46.21896" lon="4.57785">
        <ele>625</ele>
        <time>2020-07-22T13:48:06.000Z</time>
      </trkpt>
      <trkpt lat="46.21893" lon="4.57778">
        <ele>624.79998779297</ele>
        <time>2020-07-22T13:48:07.000Z</time>
      </trkpt>
      <trkpt lat="46.2188" lon="4.57739">
        <ele>623</ele>
        <time>2020-07-22T13:48:12.000Z</time>
      </trkpt>
      <trkpt lat="46.21875" lon="4.57723">
        <ele>622.40002441406</ele>
        <time>2020-07-22T13:48:14.000Z</time>
      </trkpt>
      <trkpt lat="46.21861" lon="4.57669">
        <ele>622.79998779297</ele>
        <time>2020-07-22T13:48:21.000Z</time>
      </trkpt>
      <trkpt lat="46.21859" lon="4.57662">
        <ele>623</ele>
        <time>2020-07-22T13:48:22.000Z</time>
      </trkpt>
      <trkpt lat="46.21842" lon="4.57608">
        <ele>623.79998779297</ele>
        <time>2020-07-22T13:48:30.000Z</time>
      </trkpt>
      <trkpt lat="46.21835" lon="4.57596">
        <ele>624.40002441406</ele>
        <time>2020-07-22T13:48:32.000Z</time>
      </trkpt>
      <trkpt lat="46.21824" lon="4.57583">
        <ele>624.40002441406</ele>
        <time>2020-07-22T13:48:35.000Z</time>
      </trkpt>
      <trkpt lat="46.2182" lon="4.5758">
        <ele>624.40002441406</ele>
        <time>2020-07-22T13:48:36.000Z</time>
      </trkpt>
      <trkpt lat="46.21816" lon="4.57577">
        <ele>624.40002441406</ele>
        <time>2020-07-22T13:48:37.000Z</time>
      </trkpt>
      <trkpt lat="46.21799" lon="4.57565">
        <ele>624.40002441406</ele>
        <time>2020-07-22T13:48:41.000Z</time>
      </trkpt>
      <trkpt lat="46.2178" lon="4.57552">
        <ele>624.79998779297</ele>
        <time>2020-07-22T13:48:46.000Z</time>
      </trkpt>
      <trkpt lat="46.21768" lon="4.57544">
        <ele>625</ele>
        <time>2020-07-22T13:48:49.000Z</time>
      </trkpt>
      <trkpt lat="46.21742" lon="4.57524">
        <ele>625.20001220703</ele>
        <time>2020-07-22T13:48:56.000Z</time>
      </trkpt>
      <trkpt lat="46.21738" lon="4.57521">
        <ele>625</ele>
        <time>2020-07-22T13:48:57.000Z</time>
      </trkpt>
      <trkpt lat="46.21714" lon="4.57502">
        <ele>625</ele>
        <time>2020-07-22T13:49:03.000Z</time>
      </trkpt>
      <trkpt lat="46.21711" lon="4.57498">
        <ele>625</ele>
        <time>2020-07-22T13:49:04.000Z</time>
      </trkpt>
      <trkpt lat="46.21699" lon="4.57482">
        <ele>625.40002441406</ele>
        <time>2020-07-22T13:49:09.000Z</time>
      </trkpt>
      <trkpt lat="46.21697" lon="4.57478">
        <ele>625.59997558594</ele>
        <time>2020-07-22T13:49:10.000Z</time>
      </trkpt>
      <trkpt lat="46.21688" lon="4.57458">
        <ele>626.20001220703</ele>
        <time>2020-07-22T13:49:14.000Z</time>
      </trkpt>
      <trkpt lat="46.21674" lon="4.57416">
        <ele>627.20001220703</ele>
        <time>2020-07-22T13:49:21.000Z</time>
      </trkpt>
      <trkpt lat="46.21672" lon="4.57411">
        <ele>627.40002441406</ele>
        <time>2020-07-22T13:49:22.000Z</time>
      </trkpt>
      <trkpt lat="46.21663" lon="4.57361">
        <ele>629.40002441406</ele>
        <time>2020-07-22T13:49:30.000Z</time>
      </trkpt>
      <trkpt lat="46.21661" lon="4.57348">
        <ele>630.40002441406</ele>
        <time>2020-07-22T13:49:32.000Z</time>
      </trkpt>
      <trkpt lat="46.21656" lon="4.57311">
        <ele>633.20001220703</ele>
        <time>2020-07-22T13:49:38.000Z</time>
      </trkpt>
      <trkpt lat="46.21654" lon="4.57299">
        <ele>634.20001220703</ele>
        <time>2020-07-22T13:49:40.000Z</time>
      </trkpt>
      <trkpt lat="46.21652" lon="4.57293">
        <ele>634.59997558594</ele>
        <time>2020-07-22T13:49:41.000Z</time>
      </trkpt>
      <trkpt lat="46.21648" lon="4.57276">
        <ele>636.20001220703</ele>
        <time>2020-07-22T13:49:44.000Z</time>
      </trkpt>
      <trkpt lat="46.21644" lon="4.57266">
        <ele>637.20001220703</ele>
        <time>2020-07-22T13:49:46.000Z</time>
      </trkpt>
      <trkpt lat="46.21642" lon="4.57261">
        <ele>637.59997558594</ele>
        <time>2020-07-22T13:49:47.000Z</time>
      </trkpt>
      <trkpt lat="46.2164" lon="4.57256">
        <ele>638</ele>
        <time>2020-07-22T13:49:48.000Z</time>
      </trkpt>
      <trkpt lat="46.21628" lon="4.57234">
        <ele>639.59997558594</ele>
        <time>2020-07-22T13:49:53.000Z</time>
      </trkpt>
      <trkpt lat="46.2162" lon="4.57223">
        <ele>640.20001220703</ele>
        <time>2020-07-22T13:49:56.000Z</time>
      </trkpt>
      <trkpt lat="46.21609" lon="4.5721">
        <ele>641</ele>
        <time>2020-07-22T13:50:00.000Z</time>
      </trkpt>
      <trkpt lat="46.21602" lon="4.57205">
        <ele>640.79998779297</ele>
        <time>2020-07-22T13:50:02.000Z</time>
      </trkpt>
      <trkpt lat="46.21591" lon="4.57198">
        <ele>640.79998779297</ele>
        <time>2020-07-22T13:50:05.000Z</time>
      </trkpt>
      <trkpt lat="46.21588" lon="4.57195">
        <ele>640.79998779297</ele>
        <time>2020-07-22T13:50:06.000Z</time>
      </trkpt>
      <trkpt lat="46.2158" lon="4.57185">
        <ele>641</ele>
        <time>2020-07-22T13:50:09.000Z</time>
      </trkpt>
      <trkpt lat="46.21573" lon="4.57173">
        <ele>641.59997558594</ele>
        <time>2020-07-22T13:50:12.000Z</time>
      </trkpt>
      <trkpt lat="46.21569" lon="4.57166">
        <ele>642</ele>
        <time>2020-07-22T13:50:14.000Z</time>
      </trkpt>
      <trkpt lat="46.2156" lon="4.57144">
        <ele>643.40002441406</ele>
        <time>2020-07-22T13:50:19.000Z</time>
      </trkpt>
      <trkpt lat="46.21553" lon="4.57122">
        <ele>644.79998779297</ele>
        <time>2020-07-22T13:50:24.000Z</time>
      </trkpt>
      <trkpt lat="46.21549" lon="4.57109">
        <ele>646.20001220703</ele>
        <time>2020-07-22T13:50:27.000Z</time>
      </trkpt>
      <trkpt lat="46.21547" lon="4.571">
        <ele>647.20001220703</ele>
        <time>2020-07-22T13:50:29.000Z</time>
      </trkpt>
      <trkpt lat="46.21541" lon="4.57078">
        <ele>648.79998779297</ele>
        <time>2020-07-22T13:50:34.000Z</time>
      </trkpt>
      <trkpt lat="46.21535" lon="4.57062">
        <ele>650</ele>
        <time>2020-07-22T13:50:38.000Z</time>
      </trkpt>
      <trkpt lat="46.21534" lon="4.57058">
        <ele>650.40002441406</ele>
        <time>2020-07-22T13:50:39.000Z</time>
      </trkpt>
      <trkpt lat="46.21526" lon="4.57045">
        <ele>651.20001220703</ele>
        <time>2020-07-22T13:50:43.000Z</time>
      </trkpt>
      <trkpt lat="46.21521" lon="4.5704">
        <ele>651.59997558594</ele>
        <time>2020-07-22T13:50:45.000Z</time>
      </trkpt>
      <trkpt lat="46.21513" lon="4.57032">
        <ele>652</ele>
        <time>2020-07-22T13:50:48.000Z</time>
      </trkpt>
      <trkpt lat="46.21502" lon="4.57026">
        <ele>652.59997558594</ele>
        <time>2020-07-22T13:50:52.000Z</time>
      </trkpt>
      <trkpt lat="46.21499" lon="4.57025">
        <ele>652.59997558594</ele>
        <time>2020-07-22T13:50:53.000Z</time>
      </trkpt>
      <trkpt lat="46.21484" lon="4.57024">
        <ele>652.40002441406</ele>
        <time>2020-07-22T13:50:58.000Z</time>
      </trkpt>
      <trkpt lat="46.21481" lon="4.57024">
        <ele>652.20001220703</ele>
        <time>2020-07-22T13:50:59.000Z</time>
      </trkpt>
      <trkpt lat="46.21473" lon="4.57025">
        <ele>653</ele>
        <time>2020-07-22T13:51:02.000Z</time>
      </trkpt>
      <trkpt lat="46.2146" lon="4.57027">
        <ele>655</ele>
        <time>2020-07-22T13:51:07.000Z</time>
      </trkpt>
      <trkpt lat="46.21436" lon="4.57026">
        <ele>659.20001220703</ele>
        <time>2020-07-22T13:51:16.000Z</time>
      </trkpt>
      <trkpt lat="46.21419" lon="4.57026">
        <ele>661.79998779297</ele>
        <time>2020-07-22T13:51:22.000Z</time>
      </trkpt>
      <trkpt lat="46.21405" lon="4.5703">
        <ele>663.79998779297</ele>
        <time>2020-07-22T13:51:27.000Z</time>
      </trkpt>
      <trkpt lat="46.21388" lon="4.57038">
        <ele>665.40002441406</ele>
        <time>2020-07-22T13:51:33.000Z</time>
      </trkpt>
      <trkpt lat="46.21372" lon="4.57046">
        <ele>665.79998779297</ele>
        <time>2020-07-22T13:51:39.000Z</time>
      </trkpt>
      <trkpt lat="46.2136" lon="4.57053">
        <ele>666.40002441406</ele>
        <time>2020-07-22T13:51:43.000Z</time>
      </trkpt>
      <trkpt lat="46.21358" lon="4.57053">
        <ele>666.40002441406</ele>
        <time>2020-07-22T13:51:44.000Z</time>
      </trkpt>
      <trkpt lat="46.21344" lon="4.57062">
        <ele>666.79998779297</ele>
        <time>2020-07-22T13:51:49.000Z</time>
      </trkpt>
      <trkpt lat="46.21341" lon="4.57064">
        <ele>666.79998779297</ele>
        <time>2020-07-22T13:51:50.000Z</time>
      </trkpt>
      <trkpt lat="46.21323" lon="4.57071">
        <ele>670.40002441406</ele>
        <time>2020-07-22T13:51:57.000Z</time>
      </trkpt>
      <trkpt lat="46.21315" lon="4.57074">
        <ele>672</ele>
        <time>2020-07-22T13:52:00.000Z</time>
      </trkpt>
      <trkpt lat="46.21306" lon="4.57074">
        <ele>672.40002441406</ele>
        <time>2020-07-22T13:52:03.000Z</time>
      </trkpt>
      <trkpt lat="46.213" lon="4.57073">
        <ele>672.20001220703</ele>
        <time>2020-07-22T13:52:05.000Z</time>
      </trkpt>
      <trkpt lat="46.21292" lon="4.57069">
        <ele>672.20001220703</ele>
        <time>2020-07-22T13:52:08.000Z</time>
      </trkpt>
      <trkpt lat="46.2129" lon="4.57066">
        <ele>672.59997558594</ele>
        <time>2020-07-22T13:52:09.000Z</time>
      </trkpt>
      <trkpt lat="46.21284" lon="4.57057">
        <ele>673.59997558594</ele>
        <time>2020-07-22T13:52:12.000Z</time>
      </trkpt>
      <trkpt lat="46.21281" lon="4.5705">
        <ele>674.40002441406</ele>
        <time>2020-07-22T13:52:14.000Z</time>
      </trkpt>
      <trkpt lat="46.21279" lon="4.57046">
        <ele>674.79998779297</ele>
        <time>2020-07-22T13:52:15.000Z</time>
      </trkpt>
      <trkpt lat="46.21273" lon="4.57023">
        <ele>676.79998779297</ele>
        <time>2020-07-22T13:52:21.000Z</time>
      </trkpt>
      <trkpt lat="46.21271" lon="4.57019">
        <ele>677</ele>
        <time>2020-07-22T13:52:22.000Z</time>
      </trkpt>
      <trkpt lat="46.21264" lon="4.56988">
        <ele>678.20001220703</ele>
        <time>2020-07-22T13:52:30.000Z</time>
      </trkpt>
      <trkpt lat="46.21261" lon="4.56981">
        <ele>678.59997558594</ele>
        <time>2020-07-22T13:52:32.000Z</time>
      </trkpt>
      <trkpt lat="46.21254" lon="4.56963">
        <ele>679</ele>
        <time>2020-07-22T13:52:37.000Z</time>
      </trkpt>
      <trkpt lat="46.21251" lon="4.56955">
        <ele>679.20001220703</ele>
        <time>2020-07-22T13:52:39.000Z</time>
      </trkpt>
      <trkpt lat="46.21243" lon="4.56943">
        <ele>679</ele>
        <time>2020-07-22T13:52:43.000Z</time>
      </trkpt>
      <trkpt lat="46.21237" lon="4.56934">
        <ele>679</ele>
        <time>2020-07-22T13:52:46.000Z</time>
      </trkpt>
      <trkpt lat="46.2123" lon="4.56924">
        <ele>678.79998779297</ele>
        <time>2020-07-22T13:52:49.000Z</time>
      </trkpt>
      <trkpt lat="46.21225" lon="4.56914">
        <ele>679</ele>
        <time>2020-07-22T13:52:52.000Z</time>
      </trkpt>
      <trkpt lat="46.21221" lon="4.56908">
        <ele>679.20001220703</ele>
        <time>2020-07-22T13:52:54.000Z</time>
      </trkpt>
      <trkpt lat="46.21216" lon="4.56899">
        <ele>679.59997558594</ele>
        <time>2020-07-22T13:52:57.000Z</time>
      </trkpt>
      <trkpt lat="46.2121" lon="4.56891">
        <ele>680</ele>
        <time>2020-07-22T13:53:00.000Z</time>
      </trkpt>
      <trkpt lat="46.21205" lon="4.56887">
        <ele>680.20001220703</ele>
        <time>2020-07-22T13:53:02.000Z</time>
      </trkpt>
      <trkpt lat="46.21197" lon="4.56883">
        <ele>680.40002441406</ele>
        <time>2020-07-22T13:53:05.000Z</time>
      </trkpt>
      <trkpt lat="46.21195" lon="4.56882">
        <ele>680.40002441406</ele>
        <time>2020-07-22T13:53:06.000Z</time>
      </trkpt>
      <trkpt lat="46.21182" lon="4.56874">
        <ele>681</ele>
        <time>2020-07-22T13:53:11.000Z</time>
      </trkpt>
      <trkpt lat="46.21177" lon="4.56869">
        <ele>681.20001220703</ele>
        <time>2020-07-22T13:53:13.000Z</time>
      </trkpt>
      <trkpt lat="46.21169" lon="4.56855">
        <ele>683.59997558594</ele>
        <time>2020-07-22T13:53:17.000Z</time>
      </trkpt>
      <trkpt lat="46.21167" lon="4.56847">
        <ele>685</ele>
        <time>2020-07-22T13:53:19.000Z</time>
      </trkpt>
      <trkpt lat="46.21161" lon="4.56834">
        <ele>687.40002441406</ele>
        <time>2020-07-22T13:53:23.000Z</time>
      </trkpt>
      <trkpt lat="46.21158" lon="4.56826">
        <ele>688.59997558594</ele>
        <time>2020-07-22T13:53:25.000Z</time>
      </trkpt>
      <trkpt lat="46.21149" lon="4.56809">
        <ele>691.79998779297</ele>
        <time>2020-07-22T13:53:30.000Z</time>
      </trkpt>
      <trkpt lat="46.2114" lon="4.56797">
        <ele>694.79998779297</ele>
        <time>2020-07-22T13:53:34.000Z</time>
      </trkpt>
      <trkpt lat="46.21131" lon="4.56791">
        <ele>697.20001220703</ele>
        <time>2020-07-22T13:53:37.000Z</time>
      </trkpt>
      <trkpt lat="46.21121" lon="4.56789">
        <ele>699.20001220703</ele>
        <time>2020-07-22T13:53:40.000Z</time>
      </trkpt>
      <trkpt lat="46.21118" lon="4.56789">
        <ele>699.79998779297</ele>
        <time>2020-07-22T13:53:41.000Z</time>
      </trkpt>
      <trkpt lat="46.21107" lon="4.56794">
        <ele>700.79998779297</ele>
        <time>2020-07-22T13:53:45.000Z</time>
      </trkpt>
      <trkpt lat="46.21105" lon="4.56796">
        <ele>700.79998779297</ele>
        <time>2020-07-22T13:53:46.000Z</time>
      </trkpt>
      <trkpt lat="46.21097" lon="4.56804">
        <ele>700.79998779297</ele>
        <time>2020-07-22T13:53:49.000Z</time>
      </trkpt>
      <trkpt lat="46.21091" lon="4.56813">
        <ele>700.40002441406</ele>
        <time>2020-07-22T13:53:52.000Z</time>
      </trkpt>
      <trkpt lat="46.21089" lon="4.56817">
        <ele>700.20001220703</ele>
        <time>2020-07-22T13:53:53.000Z</time>
      </trkpt>
      <trkpt lat="46.21078" lon="4.56832">
        <ele>699.59997558594</ele>
        <time>2020-07-22T13:53:58.000Z</time>
      </trkpt>
      <trkpt lat="46.21071" lon="4.56844">
        <ele>699.20001220703</ele>
        <time>2020-07-22T13:54:02.000Z</time>
      </trkpt>
      <trkpt lat="46.21065" lon="4.56852">
        <ele>699</ele>
        <time>2020-07-22T13:54:05.000Z</time>
      </trkpt>
      <trkpt lat="46.21058" lon="4.56859">
        <ele>698.79998779297</ele>
        <time>2020-07-22T13:54:08.000Z</time>
      </trkpt>
      <trkpt lat="46.21045" lon="4.56865">
        <ele>699.40002441406</ele>
        <time>2020-07-22T13:54:14.000Z</time>
      </trkpt>
      <trkpt lat="46.21027" lon="4.56864">
        <ele>701.59997558594</ele>
        <time>2020-07-22T13:54:20.000Z</time>
      </trkpt>
      <trkpt lat="46.21011" lon="4.56862">
        <ele>704</ele>
        <time>2020-07-22T13:54:26.000Z</time>
      </trkpt>
      <trkpt lat="46.20991" lon="4.56858">
        <ele>706.79998779297</ele>
        <time>2020-07-22T13:54:33.000Z</time>
      </trkpt>
      <trkpt lat="46.20977" lon="4.56854">
        <ele>708.59997558594</ele>
        <time>2020-07-22T13:54:37.000Z</time>
      </trkpt>
      <trkpt lat="46.2097" lon="4.56851">
        <ele>707.79998779297</ele>
        <time>2020-07-22T13:54:39.000Z</time>
      </trkpt>
      <trkpt lat="46.20963" lon="4.56849">
        <ele>707</ele>
        <time>2020-07-22T13:54:41.000Z</time>
      </trkpt>
      <trkpt lat="46.20954" lon="4.56841">
        <ele>706.79998779297</ele>
        <time>2020-07-22T13:54:44.000Z</time>
      </trkpt>
      <trkpt lat="46.20949" lon="4.56834">
        <ele>706.79998779297</ele>
        <time>2020-07-22T13:54:46.000Z</time>
      </trkpt>
      <trkpt lat="46.20947" lon="4.56831">
        <ele>707</ele>
        <time>2020-07-22T13:54:47.000Z</time>
      </trkpt>
      <trkpt lat="46.20943" lon="4.56817">
        <ele>708</ele>
        <time>2020-07-22T13:54:50.000Z</time>
      </trkpt>
      <trkpt lat="46.20941" lon="4.56813">
        <ele>708.40002441406</ele>
        <time>2020-07-22T13:54:51.000Z</time>
      </trkpt>
      <trkpt lat="46.20937" lon="4.56789">
        <ele>710.79998779297</ele>
        <time>2020-07-22T13:54:56.000Z</time>
      </trkpt>
      <trkpt lat="46.20934" lon="4.56776">
        <ele>712.59997558594</ele>
        <time>2020-07-22T13:54:59.000Z</time>
      </trkpt>
      <trkpt lat="46.20924" lon="4.56749">
        <ele>715.79998779297</ele>
        <time>2020-07-22T13:55:05.000Z</time>
      </trkpt>
      <trkpt lat="46.2092" lon="4.56742">
        <ele>716.59997558594</ele>
        <time>2020-07-22T13:55:07.000Z</time>
      </trkpt>
      <trkpt lat="46.209" lon="4.56717">
        <ele>717.79998779297</ele>
        <time>2020-07-22T13:55:14.000Z</time>
      </trkpt>
      <trkpt lat="46.20881" lon="4.56689">
        <ele>718.40002441406</ele>
        <time>2020-07-22T13:55:22.000Z</time>
      </trkpt>
      <trkpt lat="46.20879" lon="4.56685">
        <ele>718.40002441406</ele>
        <time>2020-07-22T13:55:23.000Z</time>
      </trkpt>
      <trkpt lat="46.20864" lon="4.56654">
        <ele>718.40002441406</ele>
        <time>2020-07-22T13:55:31.000Z</time>
      </trkpt>
      <trkpt lat="46.2086" lon="4.56647">
        <ele>718.59997558594</ele>
        <time>2020-07-22T13:55:33.000Z</time>
      </trkpt>
      <trkpt lat="46.20845" lon="4.56623">
        <ele>717.79998779297</ele>
        <time>2020-07-22T13:55:40.000Z</time>
      </trkpt>
      <trkpt lat="46.2084" lon="4.56616">
        <ele>717.40002441406</ele>
        <time>2020-07-22T13:55:42.000Z</time>
      </trkpt>
      <trkpt lat="46.2083" lon="4.56603">
        <ele>715</ele>
        <time>2020-07-22T13:55:46.000Z</time>
      </trkpt>
      <trkpt lat="46.20825" lon="4.56597">
        <ele>713.79998779297</ele>
        <time>2020-07-22T13:55:48.000Z</time>
      </trkpt>
      <trkpt lat="46.20819" lon="4.56585">
        <ele>712.20001220703</ele>
        <time>2020-07-22T13:55:51.000Z</time>
      </trkpt>
      <trkpt lat="46.20814" lon="4.56571">
        <ele>711</ele>
        <time>2020-07-22T13:55:54.000Z</time>
      </trkpt>
      <trkpt lat="46.20813" lon="4.56566">
        <ele>710.79998779297</ele>
        <time>2020-07-22T13:55:55.000Z</time>
      </trkpt>
      <trkpt lat="46.20809" lon="4.56553">
        <ele>710.20001220703</ele>
        <time>2020-07-22T13:55:58.000Z</time>
      </trkpt>
      <trkpt lat="46.20802" lon="4.5653">
        <ele>710</ele>
        <time>2020-07-22T13:56:03.000Z</time>
      </trkpt>
      <trkpt lat="46.20797" lon="4.56522">
        <ele>710.40002441406</ele>
        <time>2020-07-22T13:56:05.000Z</time>
      </trkpt>
      <trkpt lat="46.20786" lon="4.56515">
        <ele>710.59997558594</ele>
        <time>2020-07-22T13:56:08.000Z</time>
      </trkpt>
      <trkpt lat="46.2077" lon="4.56515">
        <ele>710.20001220703</ele>
        <time>2020-07-22T13:56:13.000Z</time>
      </trkpt>
    </trkseg>
  </trk>
</gpx>